sensor_id;sensor_type;location;lat;lon;timestamp;pressure;altitude;pressure_sealevel;temperature;humidity
72465;BME280;60471;52.150;4.508;2023-07-29T00:01:36;100442.75;;;19.59;74.62
72465;BME280;60471;52.150;4.508;2023-07-29T00:04:02;100438.22;;;19.60;74.50
72465;BME280;60471;52.150;4.508;2023-07-29T00:06:29;100436.41;;;19.60;73.66
72465;BME280;60471;52.150;4.508;2023-07-29T00:08:55;100433.88;;;19.59;73.11
72465;BME280;60471;52.150;4.508;2023-07-29T00:11:21;100445.81;;;19.74;72.25
72465;BME280;60471;52.150;4.508;2023-07-29T00:13:47;100433.41;;;19.83;71.22
72465;BME280;60471;52.150;4.508;2023-07-29T00:16:16;100430.34;;;19.78;71.07
72465;BME280;60471;52.150;4.508;2023-07-29T00:18:43;100428.66;;;19.77;70.51
72465;BME280;60471;52.150;4.508;2023-07-29T00:21:10;100428.91;;;19.74;70.62
72465;BME280;60471;52.150;4.508;2023-07-29T00:23:36;100421.56;;;19.85;70.77
72465;BME280;60471;52.150;4.508;2023-07-29T00:26:02;100426.81;;;19.87;70.94
72465;BME280;60471;52.150;4.508;2023-07-29T00:28:29;100422.84;;;19.81;71.28
72465;BME280;60471;52.150;4.508;2023-07-29T00:30:55;100424.84;;;19.89;71.41
72465;BME280;60471;52.150;4.508;2023-07-29T00:33:21;100429.22;;;19.80;71.70
72465;BME280;60471;52.150;4.508;2023-07-29T00:35:48;100423.00;;;19.70;71.55
72465;BME280;60471;52.150;4.508;2023-07-29T00:38:14;100422.16;;;19.60;71.79
72465;BME280;60471;52.150;4.508;2023-07-29T00:40:40;100426.66;;;19.50;72.10
72465;BME280;60471;52.150;4.508;2023-07-29T00:43:06;100419.78;;;19.57;71.53
72465;BME280;60471;52.150;4.508;2023-07-29T00:45:33;100424.28;;;19.66;70.98
72465;BME280;60471;52.150;4.508;2023-07-29T00:48:01;100415.69;;;19.62;70.70
72465;BME280;60471;52.150;4.508;2023-07-29T00:50:30;100416.09;;;19.48;70.08
72465;BME280;60471;52.150;4.508;2023-07-29T00:52:58;100413.41;;;19.38;70.18
72465;BME280;60471;52.150;4.508;2023-07-29T00:55:24;100412.56;;;19.38;69.70
72465;BME280;60471;52.150;4.508;2023-07-29T00:57:51;100417.38;;;19.44;69.71
72465;BME280;60471;52.150;4.508;2023-07-29T01:00:21;100414.81;;;19.33;69.57
72465;BME280;60471;52.150;4.508;2023-07-29T01:02:48;100405.94;;;19.42;69.36
72465;BME280;60471;52.150;4.508;2023-07-29T01:05:16;100395.09;;;19.24;69.55
72465;BME280;60471;52.150;4.508;2023-07-29T01:08:01;100400.03;;;19.29;69.89
72465;BME280;60471;52.150;4.508;2023-07-29T01:10:40;100402.16;;;19.35;69.51
72465;BME280;60471;52.150;4.508;2023-07-29T01:13:16;100401.31;;;19.34;69.66
72465;BME280;60471;52.150;4.508;2023-07-29T01:15:55;100401.16;;;19.36;69.98
72465;BME280;60471;52.150;4.508;2023-07-29T01:18:30;100401.31;;;19.34;70.01
72465;BME280;60471;52.150;4.508;2023-07-29T01:20:59;100392.28;;;19.35;70.29
72465;BME280;60471;52.150;4.508;2023-07-29T01:23:31;100393.28;;;19.25;70.62
72465;BME280;60471;52.150;4.508;2023-07-29T01:25:59;100385.09;;;19.17;71.03
72465;BME280;60471;52.150;4.508;2023-07-29T01:28:27;100379.88;;;19.15;71.23
72465;BME280;60471;52.150;4.508;2023-07-29T01:31:06;100380.72;;;19.16;71.70
72465;BME280;60471;52.150;4.508;2023-07-29T01:33:57;100386.78;;;19.08;72.19
72465;BME280;60471;52.150;4.508;2023-07-29T01:36:29;100391.13;;;18.99;72.68
72465;BME280;60471;52.150;4.508;2023-07-29T01:38:59;100390.41;;;18.97;73.00
72465;BME280;60471;52.150;4.508;2023-07-29T01:41:29;100401.13;;;19.17;72.50
72465;BME280;60471;52.150;4.508;2023-07-29T01:43:56;100389.00;;;18.83;74.15
72465;BME280;60471;52.150;4.508;2023-07-29T01:46:23;100383.66;;;18.93;73.68
72465;BME280;60471;52.150;4.508;2023-07-29T01:48:49;100388.72;;;18.87;74.66
72465;BME280;60471;52.150;4.508;2023-07-29T01:51:15;100378.44;;;18.82;75.08
72465;BME280;60471;52.150;4.508;2023-07-29T01:53:42;100379.72;;;18.78;75.80
72465;BME280;60471;52.150;4.508;2023-07-29T01:56:08;100373.22;;;18.71;76.01
72465;BME280;60471;52.150;4.508;2023-07-29T01:58:34;100368.88;;;18.79;75.69
72465;BME280;60471;52.150;4.508;2023-07-29T02:01:00;100373.09;;;18.82;76.20
72465;BME280;60471;52.150;4.508;2023-07-29T02:03:26;100366.63;;;18.85;75.88
72465;BME280;60471;52.150;4.508;2023-07-29T02:05:53;100379.81;;;18.76;76.45
72465;BME280;60471;52.150;4.508;2023-07-29T02:08:20;100372.94;;;18.74;76.62
72465;BME280;60471;52.150;4.508;2023-07-29T02:10:46;100374.63;;;18.85;76.29
72465;BME280;60471;52.150;4.508;2023-07-29T02:13:14;100363.22;;;18.73;77.08
72465;BME280;60471;52.150;4.508;2023-07-29T02:15:40;100364.50;;;18.78;76.84
72465;BME280;60471;52.150;4.508;2023-07-29T02:18:06;100369.25;;;18.75;76.83
72465;BME280;60471;52.150;4.508;2023-07-29T02:20:33;100365.91;;;18.82;77.22
72465;BME280;60471;52.150;4.508;2023-07-29T02:22:59;100362.94;;;18.76;77.19
72465;BME280;60471;52.150;4.508;2023-07-29T02:25:25;100366.19;;;18.70;77.54
72465;BME280;60471;52.150;4.508;2023-07-29T02:27:52;100364.91;;;18.74;77.16
72465;BME280;60471;52.150;4.508;2023-07-29T02:30:18;100357.88;;;18.73;77.41
72465;BME280;60471;52.150;4.508;2023-07-29T02:32:44;100352.81;;;18.70;77.73
72465;BME280;60471;52.150;4.508;2023-07-29T02:35:11;100354.50;;;18.71;77.47
72465;BME280;60471;52.150;4.508;2023-07-29T02:37:38;100355.50;;;18.79;77.55
72465;BME280;60471;52.150;4.508;2023-07-29T02:40:05;100352.84;;;18.79;77.48
72465;BME280;60471;52.150;4.508;2023-07-29T02:42:31;100351.97;;;18.69;77.92
72465;BME280;60471;52.150;4.508;2023-07-29T02:44:58;100344.22;;;18.76;77.78
72465;BME280;60471;52.150;4.508;2023-07-29T02:47:24;100344.66;;;18.81;77.07
72465;BME280;60471;52.150;4.508;2023-07-29T02:49:50;100329.16;;;18.75;77.83
72465;BME280;60471;52.150;4.508;2023-07-29T02:52:17;100323.28;;;18.81;77.71
72465;BME280;60471;52.150;4.508;2023-07-29T02:54:43;100328.34;;;18.84;77.12
72465;BME280;60471;52.150;4.508;2023-07-29T02:57:09;100325.38;;;18.77;77.52
72465;BME280;60471;52.150;4.508;2023-07-29T02:59:35;100330.31;;;18.72;77.95
72465;BME280;60471;52.150;4.508;2023-07-29T03:02:02;100332.56;;;18.87;77.52
72465;BME280;60471;52.150;4.508;2023-07-29T03:04:28;100333.50;;;18.66;77.60
72465;BME280;60471;52.150;4.508;2023-07-29T03:06:54;100328.63;;;18.71;78.36
72465;BME280;60471;52.150;4.508;2023-07-29T03:09:20;100326.88;;;18.61;78.67
72465;BME280;60471;52.150;4.508;2023-07-29T03:11:46;100337.41;;;18.62;78.06
72465;BME280;60471;52.150;4.508;2023-07-29T03:14:13;100333.25;;;18.69;78.04
72465;BME280;60471;52.150;4.508;2023-07-29T03:16:39;100326.31;;;18.57;78.44
72465;BME280;60471;52.150;4.508;2023-07-29T03:19:05;100333.47;;;18.57;78.72
72465;BME280;60471;52.150;4.508;2023-07-29T03:21:34;100331.22;;;18.62;79.03
72465;BME280;60471;52.150;4.508;2023-07-29T03:24:00;100345.19;;;18.65;78.39
72465;BME280;60471;52.150;4.508;2023-07-29T03:26:27;100358.41;;;18.67;78.45
72465;BME280;60471;52.150;4.508;2023-07-29T03:28:53;100344.94;;;18.68;78.47
72465;BME280;60471;52.150;4.508;2023-07-29T03:31:19;100348.69;;;18.66;78.70
72465;BME280;60471;52.150;4.508;2023-07-29T03:33:46;100347.69;;;18.57;79.46
72465;BME280;60471;52.150;4.508;2023-07-29T03:36:12;100344.34;;;18.65;79.21
72465;BME280;60471;52.150;4.508;2023-07-29T03:38:38;100339.00;;;18.65;78.98
72465;BME280;60471;52.150;4.508;2023-07-29T03:41:07;100343.19;;;18.58;79.15
72465;BME280;60471;52.150;4.508;2023-07-29T03:43:34;100336.78;;;18.70;79.31
72465;BME280;60471;52.150;4.508;2023-07-29T03:46:01;100345.44;;;18.62;79.24
72465;BME280;60471;52.150;4.508;2023-07-29T03:48:27;100349.78;;;18.63;79.64
72465;BME280;60471;52.150;4.508;2023-07-29T03:50:53;100352.22;;;18.66;79.79
72465;BME280;60471;52.150;4.508;2023-07-29T03:53:20;100359.56;;;18.74;79.42
72465;BME280;60471;52.150;4.508;2023-07-29T03:55:46;100351.44;;;18.95;78.20
72465;BME280;60471;52.150;4.508;2023-07-29T03:58:12;100340.72;;;18.85;79.04
72465;BME280;60471;52.150;4.508;2023-07-29T04:00:39;100340.16;;;18.81;78.76
72465;BME280;60471;52.150;4.508;2023-07-29T04:03:05;100346.91;;;18.86;79.04
72465;BME280;60471;52.150;4.508;2023-07-29T04:05:32;100337.06;;;18.76;79.38
72465;BME280;60471;52.150;4.508;2023-07-29T04:07:58;100341.41;;;18.77;79.30
72465;BME280;60471;52.150;4.508;2023-07-29T04:10:24;100351.41;;;18.85;79.31
72465;BME280;60471;52.150;4.508;2023-07-29T04:12:54;100342.97;;;18.99;78.54
72465;BME280;60471;52.150;4.508;2023-07-29T04:15:20;100334.41;;;18.96;78.39
72465;BME280;60471;52.150;4.508;2023-07-29T04:17:46;100339.34;;;19.10;77.88
72465;BME280;60471;52.150;4.508;2023-07-29T04:20:17;100338.91;;;18.95;78.73
72465;BME280;60471;52.150;4.508;2023-07-29T04:22:44;100333.97;;;19.10;78.00
72465;BME280;60471;52.150;4.508;2023-07-29T04:25:10;100341.16;;;19.19;77.88
72465;BME280;60471;52.150;4.508;2023-07-29T04:27:36;100341.03;;;19.21;77.78
72465;BME280;60471;52.150;4.508;2023-07-29T04:30:03;100344.13;;;19.06;78.26
72465;BME280;60471;52.150;4.508;2023-07-29T04:32:29;100343.44;;;19.04;78.50
72465;BME280;60471;52.150;4.508;2023-07-29T04:34:56;100348.63;;;19.06;78.89
72465;BME280;60471;52.150;4.508;2023-07-29T04:37:22;100353.84;;;19.07;78.49
72465;BME280;60471;52.150;4.508;2023-07-29T04:39:48;100348.09;;;19.22;77.96
72465;BME280;60471;52.150;4.508;2023-07-29T04:42:15;100347.09;;;19.13;78.60
72465;BME280;60471;52.150;4.508;2023-07-29T04:44:41;100353.28;;;19.23;78.18
72465;BME280;60471;52.150;4.508;2023-07-29T04:47:10;100360.34;;;19.34;77.96
72465;BME280;60471;52.150;4.508;2023-07-29T04:49:36;100354.13;;;19.24;77.67
72465;BME280;60471;52.150;4.508;2023-07-29T04:52:03;100350.03;;;19.39;77.29
72465;BME280;60471;52.150;4.508;2023-07-29T04:54:29;100355.97;;;19.14;78.13
72465;BME280;60471;52.150;4.508;2023-07-29T04:56:55;100355.78;;;18.96;78.82
72465;BME280;60471;52.150;4.508;2023-07-29T04:59:22;100361.56;;;19.20;78.22
72465;BME280;60471;52.150;4.508;2023-07-29T05:01:48;100354.13;;;19.14;78.56
72465;BME280;60471;52.150;4.508;2023-07-29T05:04:14;100366.63;;;18.94;79.35
72465;BME280;60471;52.150;4.508;2023-07-29T05:06:41;100356.63;;;18.87;80.08
72465;BME280;60471;52.150;4.508;2023-07-29T05:09:15;100363.25;;;18.92;79.53
72465;BME280;60471;52.150;4.508;2023-07-29T05:11:42;100349.75;;;18.94;79.35
72465;BME280;60471;52.150;4.508;2023-07-29T05:14:13;100352.28;;;19.05;79.39
72465;BME280;60471;52.150;4.508;2023-07-29T05:16:40;100358.78;;;19.22;78.95
72465;BME280;60471;52.150;4.508;2023-07-29T05:19:06;100351.03;;;19.28;78.02
72465;BME280;60471;52.150;4.508;2023-07-29T05:21:37;100358.75;;;19.41;77.63
72465;BME280;60471;52.150;4.508;2023-07-29T05:24:04;100350.03;;;19.29;78.11
72465;BME280;60471;52.150;4.508;2023-07-29T05:26:30;100352.84;;;19.37;77.82
72465;BME280;60471;52.150;4.508;2023-07-29T05:28:56;100340.88;;;19.51;77.14
72465;BME280;60471;52.150;4.508;2023-07-29T05:31:23;100341.88;;;19.40;77.53
72465;BME280;60471;52.150;4.508;2023-07-29T05:33:49;100343.28;;;19.54;77.45
72465;BME280;60471;52.150;4.508;2023-07-29T05:36:15;100350.19;;;19.57;77.46
72465;BME280;60471;52.150;4.508;2023-07-29T05:38:41;100357.47;;;19.84;76.69
72465;BME280;60471;52.150;4.508;2023-07-29T05:41:08;100355.63;;;19.84;76.44
72465;BME280;60471;52.150;4.508;2023-07-29T05:43:34;100344.53;;;19.79;76.37
72465;BME280;60471;52.150;4.508;2023-07-29T05:46:00;100340.00;;;19.80;76.57
72465;BME280;60471;52.150;4.508;2023-07-29T05:48:27;100342.84;;;19.68;76.87
72465;BME280;60471;52.150;4.508;2023-07-29T05:50:53;100344.69;;;19.68;76.92
72465;BME280;60471;52.150;4.508;2023-07-29T05:53:19;100343.53;;;19.51;78.10
72465;BME280;60471;52.150;4.508;2023-07-29T05:55:45;100337.63;;;19.48;78.25
72465;BME280;60471;52.150;4.508;2023-07-29T05:58:12;100345.53;;;19.49;78.28
72465;BME280;60471;52.150;4.508;2023-07-29T06:00:38;100354.41;;;19.69;77.65
72465;BME280;60471;52.150;4.508;2023-07-29T06:03:04;100363.81;;;19.83;77.09
72465;BME280;60471;52.150;4.508;2023-07-29T06:05:30;100363.09;;;19.90;76.68
72465;BME280;60471;52.150;4.508;2023-07-29T06:07:57;100359.44;;;19.91;77.05
72465;BME280;60471;52.150;4.508;2023-07-29T06:10:23;100364.66;;;19.74;77.51
72465;BME280;60471;52.150;4.508;2023-07-29T06:12:49;100361.09;;;19.92;77.59
72465;BME280;60471;52.150;4.508;2023-07-29T06:15:15;100359.22;;;20.12;76.86
72465;BME280;60471;52.150;4.508;2023-07-29T06:17:42;100359.78;;;20.06;76.19
72465;BME280;60471;52.150;4.508;2023-07-29T06:20:08;100355.59;;;19.94;76.72
72465;BME280;60471;52.150;4.508;2023-07-29T06:22:35;100367.75;;;19.88;76.73
72465;BME280;60471;52.150;4.508;2023-07-29T06:25:01;100368.81;;;20.05;76.91
72465;BME280;60471;52.150;4.508;2023-07-29T06:27:27;100370.13;;;19.91;77.06
72465;BME280;60471;52.150;4.508;2023-07-29T06:29:54;100373.63;;;20.02;76.62
72465;BME280;60471;52.150;4.508;2023-07-29T06:32:20;100364.69;;;20.20;76.58
72465;BME280;60471;52.150;4.508;2023-07-29T06:34:46;100363.16;;;20.55;75.29
72465;BME280;60471;52.150;4.508;2023-07-29T06:37:12;100362.34;;;20.45;74.80
72465;BME280;60471;52.150;4.508;2023-07-29T06:39:38;100370.69;;;20.69;73.45
72465;BME280;60471;52.150;4.508;2023-07-29T06:42:05;100368.13;;;21.13;72.06
72465;BME280;60471;52.150;4.508;2023-07-29T06:44:32;100364.75;;;21.11;71.85
72465;BME280;60471;52.150;4.508;2023-07-29T06:46:58;100359.09;;;20.96;72.60
72465;BME280;60471;52.150;4.508;2023-07-29T06:49:25;100381.00;;;20.27;73.78
72465;BME280;60471;52.150;4.508;2023-07-29T06:51:51;100378.94;;;20.21;75.44
72465;BME280;60471;52.150;4.508;2023-07-29T06:54:17;100370.41;;;20.45;74.50
72465;BME280;60471;52.150;4.508;2023-07-29T06:56:43;100370.16;;;20.66;73.91
72465;BME280;60471;52.150;4.508;2023-07-29T06:59:10;100369.19;;;20.57;75.09
72465;BME280;60471;52.150;4.508;2023-07-29T07:01:36;100364.94;;;20.27;76.10
72465;BME280;60471;52.150;4.508;2023-07-29T07:04:02;100364.34;;;19.96;76.82
72465;BME280;60471;52.150;4.508;2023-07-29T07:06:28;100379.47;;;20.24;75.44
72465;BME280;60471;52.150;4.508;2023-07-29T07:08:55;100375.66;;;20.27;74.19
72465;BME280;60471;52.150;4.508;2023-07-29T07:11:21;100391.00;;;20.35;74.49
72465;BME280;60471;52.150;4.508;2023-07-29T07:13:47;100365.38;;;20.60;72.71
72465;BME280;60471;52.150;4.508;2023-07-29T07:16:13;100369.31;;;20.65;71.89
72465;BME280;60471;52.150;4.508;2023-07-29T07:18:40;100378.00;;;20.77;71.39
72465;BME280;60471;52.150;4.508;2023-07-29T07:21:06;100378.84;;;20.40;71.77
72465;BME280;60471;52.150;4.508;2023-07-29T07:23:32;100392.53;;;20.74;70.58
72465;BME280;60471;52.150;4.508;2023-07-29T07:25:58;100377.81;;;20.51;70.58
72465;BME280;60471;52.150;4.508;2023-07-29T07:28:25;100399.34;;;20.69;69.82
72465;BME280;60471;52.150;4.508;2023-07-29T07:30:51;100386.06;;;21.12;68.70
72465;BME280;60471;52.150;4.508;2023-07-29T07:33:17;100388.66;;;21.32;67.51
72465;BME280;60471;52.150;4.508;2023-07-29T07:35:43;100401.06;;;21.05;68.31
72465;BME280;60471;52.150;4.508;2023-07-29T07:38:10;100378.91;;;21.31;67.01
72465;BME280;60471;52.150;4.508;2023-07-29T07:40:36;100427.34;;;20.57;68.10
72465;BME280;60471;52.150;4.508;2023-07-29T07:43:03;100444.03;;;20.41;67.56
72465;BME280;60471;52.150;4.508;2023-07-29T07:45:29;100404.09;;;20.38;67.14
72465;BME280;60471;52.150;4.508;2023-07-29T07:47:56;100420.94;;;20.30;68.58
72465;BME280;60471;52.150;4.508;2023-07-29T07:50:22;100415.13;;;20.44;67.39
72465;BME280;60471;52.150;4.508;2023-07-29T07:52:49;100400.63;;;20.65;66.95
72465;BME280;60471;52.150;4.508;2023-07-29T07:55:16;100393.59;;;20.64;67.66
72465;BME280;60471;52.150;4.508;2023-07-29T07:57:42;100396.41;;;20.90;67.23
72465;BME280;60471;52.150;4.508;2023-07-29T08:00:09;100395.69;;;21.33;66.54
72465;BME280;60471;52.150;4.508;2023-07-29T08:02:35;100414.53;;;21.23;66.04
72465;BME280;60471;52.150;4.508;2023-07-29T08:05:02;100398.16;;;21.44;65.58
72465;BME280;60471;52.150;4.508;2023-07-29T08:07:28;100397.84;;;21.29;66.46
72465;BME280;60471;52.150;4.508;2023-07-29T08:09:54;100407.81;;;20.92;67.62
72465;BME280;60471;52.150;4.508;2023-07-29T08:12:20;100404.97;;;20.93;68.11
72465;BME280;60471;52.150;4.508;2023-07-29T08:14:46;100407.97;;;21.35;66.59
72465;BME280;60471;52.150;4.508;2023-07-29T08:17:13;100424.13;;;21.26;65.92
72465;BME280;60471;52.150;4.508;2023-07-29T08:19:39;100416.38;;;21.23;66.38
72465;BME280;60471;52.150;4.508;2023-07-29T08:22:05;100437.69;;;21.24;65.89
72465;BME280;60471;52.150;4.508;2023-07-29T08:24:31;100409.34;;;21.39;66.11
72465;BME280;60471;52.150;4.508;2023-07-29T08:26:58;100408.94;;;21.17;66.97
72465;BME280;60471;52.150;4.508;2023-07-29T08:29:24;100421.28;;;21.27;66.09
72465;BME280;60471;52.150;4.508;2023-07-29T08:31:50;100411.09;;;21.49;65.92
72465;BME280;60471;52.150;4.508;2023-07-29T08:34:17;100417.53;;;21.38;65.64
72465;BME280;60471;52.150;4.508;2023-07-29T08:36:44;100421.22;;;21.55;64.93
72465;BME280;60471;52.150;4.508;2023-07-29T08:39:10;100404.78;;;22.02;63.93
72465;BME280;60471;52.150;4.508;2023-07-29T08:44:24;100409.16;;;22.54;59.92
72465;BME280;60471;52.150;4.508;2023-07-29T08:46:52;100412.81;;;22.79;59.30
72465;BME280;60471;52.150;4.508;2023-07-29T08:49:19;100400.47;;;23.03;58.71
72465;BME280;60471;52.150;4.508;2023-07-29T08:51:49;100413.41;;;22.65;60.07
72465;BME280;60471;52.150;4.508;2023-07-29T08:54:19;100422.53;;;22.38;59.75
72465;BME280;60471;52.150;4.508;2023-07-29T08:56:46;100413.88;;;22.00;61.05
72465;BME280;60471;52.150;4.508;2023-07-29T08:59:13;100427.97;;;22.20;61.62
72465;BME280;60471;52.150;4.508;2023-07-29T09:01:41;100424.13;;;22.23;62.08
72465;BME280;60471;52.150;4.508;2023-07-29T09:04:07;100420.75;;;22.03;61.97
72465;BME280;60471;52.150;4.508;2023-07-29T09:06:35;100427.78;;;21.96;62.48
72465;BME280;60471;52.150;4.508;2023-07-29T09:09:02;100422.38;;;22.40;61.46
72465;BME280;60471;52.150;4.508;2023-07-29T09:11:28;100421.84;;;21.92;63.52
72465;BME280;60471;52.150;4.508;2023-07-29T09:13:55;100419.34;;;21.91;64.00
72465;BME280;60471;52.150;4.508;2023-07-29T09:16:21;100433.09;;;21.88;64.30
72465;BME280;60471;52.150;4.508;2023-07-29T09:18:49;100416.94;;;22.06;64.01
72465;BME280;60471;52.150;4.508;2023-07-29T09:21:24;100421.41;;;21.97;63.63
72465;BME280;60471;52.150;4.508;2023-07-29T09:23:54;100407.44;;;21.50;65.07
72465;BME280;60471;52.150;4.508;2023-07-29T09:26:28;100405.38;;;21.87;64.22
72465;BME280;60471;52.150;4.508;2023-07-29T09:28:56;100411.06;;;21.84;63.93
72465;BME280;60471;52.150;4.508;2023-07-29T09:31:24;100407.97;;;22.15;62.54
72465;BME280;60471;52.150;4.508;2023-07-29T09:34:02;100434.16;;;21.95;63.77
72465;BME280;60471;52.150;4.508;2023-07-29T09:36:32;100432.34;;;21.78;64.29
72465;BME280;60471;52.150;4.508;2023-07-29T09:38:59;100434.69;;;21.98;63.54
72465;BME280;60471;52.150;4.508;2023-07-29T09:41:27;100429.59;;;21.52;65.58
72465;BME280;60471;52.150;4.508;2023-07-29T09:43:58;100419.16;;;22.10;64.12
72465;BME280;60471;52.150;4.508;2023-07-29T09:46:35;100412.78;;;22.71;62.54
72465;BME280;60471;52.150;4.508;2023-07-29T09:49:07;100421.84;;;21.92;63.87
72465;BME280;60471;52.150;4.508;2023-07-29T09:51:38;100406.78;;;21.74;64.86
72465;BME280;60471;52.150;4.508;2023-07-29T09:54:05;100415.72;;;22.00;63.62
72465;BME280;60471;52.150;4.508;2023-07-29T09:56:32;100418.78;;;22.31;62.51
72465;BME280;60471;52.150;4.508;2023-07-29T09:58:58;100408.28;;;21.94;64.91
72465;BME280;60471;52.150;4.508;2023-07-29T10:01:25;100422.75;;;22.01;64.92
72465;BME280;60471;52.150;4.508;2023-07-29T10:03:52;100411.34;;;21.99;64.23
72465;BME280;60471;52.150;4.508;2023-07-29T10:06:19;100415.94;;;21.45;67.14
72465;BME280;60471;52.150;4.508;2023-07-29T10:08:47;100409.81;;;21.53;67.50
72465;BME280;60471;52.150;4.508;2023-07-29T10:11:15;100421.38;;;21.71;66.82
72465;BME280;60471;52.150;4.508;2023-07-29T10:13:42;100429.22;;;21.90;66.30
72465;BME280;60471;52.150;4.508;2023-07-29T10:16:08;100425.84;;;21.62;67.74
72465;BME280;60471;52.150;4.508;2023-07-29T10:18:36;100427.91;;;21.51;67.98
72465;BME280;60471;52.150;4.508;2023-07-29T10:21:02;100430.63;;;21.23;69.55
72465;BME280;60471;52.150;4.508;2023-07-29T10:23:34;100441.81;;;21.19;70.56
72465;BME280;60471;52.150;4.508;2023-07-29T10:26:10;100448.88;;;20.92;71.88
72465;BME280;60471;52.150;4.508;2023-07-29T10:28:40;100446.34;;;20.91;72.73
72465;BME280;60471;52.150;4.508;2023-07-29T10:31:13;100459.81;;;21.08;71.94
72465;BME280;60471;52.150;4.508;2023-07-29T10:33:42;100447.22;;;21.36;70.51
72465;BME280;60471;52.150;4.508;2023-07-29T10:36:10;100435.91;;;21.60;70.41
72465;BME280;60471;52.150;4.508;2023-07-29T10:38:38;100438.53;;;21.78;69.80
72465;BME280;60471;52.150;4.508;2023-07-29T10:41:04;100430.44;;;22.14;68.28
72465;BME280;60471;52.150;4.508;2023-07-29T10:43:36;100445.16;;;21.84;67.28
72465;BME280;60471;52.150;4.508;2023-07-29T10:46:30;100433.78;;;22.08;66.15
72465;BME280;60471;52.150;4.508;2023-07-29T10:49:01;100442.84;;;22.07;66.12
72465;BME280;60471;52.150;4.508;2023-07-29T10:51:29;100428.22;;;21.91;68.01
72465;BME280;60471;52.150;4.508;2023-07-29T10:54:03;100445.31;;;21.82;67.49
72465;BME280;60471;52.150;4.508;2023-07-29T10:56:41;100439.72;;;21.40;69.12
72465;BME280;60471;52.150;4.508;2023-07-29T11:01:42;100429.91;;;21.31;69.93
72465;BME280;60471;52.150;4.508;2023-07-29T11:17:51;100433.31;;;21.23;71.45
72465;BME280;60471;52.150;4.508;2023-07-29T11:20:28;100437.19;;;21.11;72.02
72465;BME280;60471;52.150;4.508;2023-07-29T11:22:59;100428.09;;;20.30;76.40
72465;BME280;60471;52.150;4.508;2023-07-29T11:25:29;100424.13;;;19.87;79.88
72465;BME280;60471;52.150;4.508;2023-07-29T11:27:58;100437.25;;;19.71;81.38
72465;BME280;60471;52.150;4.508;2023-07-29T11:30:25;100426.38;;;19.82;81.30
72465;BME280;60471;52.150;4.508;2023-07-29T11:32:53;100426.03;;;20.14;80.58
72465;BME280;60471;52.150;4.508;2023-07-29T11:35:21;100435.34;;;20.19;80.52
72465;BME280;60471;52.150;4.508;2023-07-29T11:37:49;100439.03;;;20.09;80.26
72465;BME280;60471;52.150;4.508;2023-07-29T11:40:22;100447.50;;;20.51;79.89
72465;BME280;60471;52.150;4.508;2023-07-29T11:42:50;100439.25;;;20.35;78.87
72465;BME280;60471;52.150;4.508;2023-07-29T11:45:19;100452.75;;;20.52;79.18
72465;BME280;60471;52.150;4.508;2023-07-29T11:47:48;100432.19;;;20.71;78.21
72465;BME280;60471;52.150;4.508;2023-07-29T11:50:14;100450.78;;;20.82;77.30
72465;BME280;60471;52.150;4.508;2023-07-29T11:52:46;100445.44;;;21.27;76.04
72465;BME280;60471;52.150;4.508;2023-07-29T11:55:14;100443.47;;;21.83;74.22
72465;BME280;60471;52.150;4.508;2023-07-29T11:57:42;100446.84;;;21.67;73.18
72465;BME280;60471;52.150;4.508;2023-07-29T12:00:10;100437.88;;;22.20;72.33
72465;BME280;60471;52.150;4.508;2023-07-29T12:02:39;100452.19;;;22.54;68.59
72465;BME280;60471;52.150;4.508;2023-07-29T12:05:09;100450.94;;;21.71;70.65
72465;BME280;60471;52.150;4.508;2023-07-29T12:07:38;100437.03;;;21.76;69.67
72465;BME280;60471;52.150;4.508;2023-07-29T12:10:05;100449.84;;;21.46;70.93
72465;BME280;60471;52.150;4.508;2023-07-29T12:12:32;100431.44;;;21.33;71.66
72465;BME280;60471;52.150;4.508;2023-07-29T12:14:58;100445.94;;;21.13;72.79
72465;BME280;60471;52.150;4.508;2023-07-29T12:17:24;100429.94;;;21.21;73.49
72465;BME280;60471;52.150;4.508;2023-07-29T12:19:54;100434.44;;;22.10;70.86
72465;BME280;60471;52.150;4.508;2023-07-29T12:22:21;100422.84;;;24.50;61.39
72465;BME280;60471;52.150;4.508;2023-07-29T12:24:50;100423.72;;;25.21;59.32
72465;BME280;60471;52.150;4.508;2023-07-29T12:27:18;100426.34;;;23.79;62.36
72465;BME280;60471;52.150;4.508;2023-07-29T12:29:47;100431.16;;;24.79;59.45
72465;BME280;60471;52.150;4.508;2023-07-29T12:32:14;100420.31;;;25.27;57.05
72465;BME280;60471;52.150;4.508;2023-07-29T12:34:40;100425.94;;;25.17;57.80
72465;BME280;60471;52.150;4.508;2023-07-29T12:37:07;100426.88;;;24.93;58.06
72465;BME280;60471;52.150;4.508;2023-07-29T12:39:35;100430.22;;;25.34;56.27
72465;BME280;60471;52.150;4.508;2023-07-29T12:42:07;100440.59;;;24.83;56.13
72465;BME280;60471;52.150;4.508;2023-07-29T12:44:35;100430.81;;;26.28;52.27
72465;BME280;60471;52.150;4.508;2023-07-29T12:47:05;100426.75;;;25.94;52.77
72465;BME280;60471;52.150;4.508;2023-07-29T12:49:32;100428.97;;;25.68;53.04
72465;BME280;60471;52.150;4.508;2023-07-29T12:51:59;100439.22;;;26.48;50.42
72465;BME280;60471;52.150;4.508;2023-07-29T12:54:26;100429.53;;;26.01;51.42
72465;BME280;60471;52.150;4.508;2023-07-29T12:56:52;100412.41;;;26.09;52.97
72465;BME280;60471;52.150;4.508;2023-07-29T12:59:18;100416.78;;;28.61;47.59
72465;BME280;60471;52.150;4.508;2023-07-29T13:01:45;100405.50;;;29.19;44.98
72465;BME280;60471;52.150;4.508;2023-07-29T13:04:11;100403.53;;;29.73;45.01
72465;BME280;60471;52.150;4.508;2023-07-29T13:06:37;100423.81;;;28.49;45.71
72465;BME280;60471;52.150;4.508;2023-07-29T13:09:04;100430.97;;;28.63;45.05
72465;BME280;60471;52.150;4.508;2023-07-29T13:11:31;100431.78;;;29.53;43.71